Terminal Aerodrome Forecast
Issued by NWS Memphis, TN

Home | Current Version | Previous Version | Text Only | Print | Product List | Glossary On
Versions: 1 2 3 4 5 6 7 8 9 10 11 12 13 14 15 16 17 18 19 20 21 22 23 24 25
000
FTUS44 KMEG 171142
TAFMEM
TAF
KMEM 171142Z 1712/1818 12005KT 5SM BR VCSH OVC015
     FM171500 14006KT P6SM OVC020
     FM172000 19005KT P6SM BKN025
     FM180200 00000KT 6SM BR OVC015
     FM180600 VRB03KT 4SM BR OVC009
     FM181600 20004KT P6SM FEW009 BKN015=

USA.gov is the U.S. government's official web portal to all federal, state and local government web resources and services.